Startpagina
METAR-TAF:

METAR-TAF

Vliegvelden :

Ndjamena, Tsjaad

breedte: 12-08N, lengte: 015-02E, hoogte: 295 m

Actueel weer

Dit bericht is 57 minuten geleden gemaakt, om 11:00 UTC
Wind 13 kt uit het oostnoordoosten
Temperatuur 37°C
Vochtigheid 11%
Druk 1010 hPa
Zicht 10 km of meer
geen wolken onder 1500 m en geen cumulonimbus

METAR: FTTJ 191100Z 07013KT CAVOK 37/02 Q1010 NOSIG

Tijdstip: 12:57 (11:57 UTC)

Verwachting

Dit bericht is 47 minuten geleden gemaakt, om 11:10 UTC
Verwachting geldig van 19 om 12 UTC tot 20 om 18 UTC
Wind 12 kt uit het oosten
Zicht 10 km of meer
geen wolken onder 1500 m en geen cumulonimbus
Wijzigt naar
van 19 om 15 UTC tot 19 om 17 UTC
Wind 6 kt uit het noordnoordoosten
Wijzigt naar
van 20 om 06 UTC tot 20 om 08 UTC
Wind 14 kt uit het oosten
Van 20 om 1700 UTC
Wind 12 kt uit het noordoosten
Zicht: 4000 m
verspreid stof

TAF: FTTJ 191110Z 1912/2018 08012KT CAVOK BECMG 1915/1917 02006KT BECMG 2006/2008 08014KT FM201700 04012KT 4000 DU NSC

Waarnemingen en weersverwachtingen van meer dan 4000 vliegvelden (METAR en TAF).

De beschikbare stations zijn de gele en rode punten op de kaart.

Ga met uw muis naar het station om de naam te zien.

Klik dan om waarnemingen en weersverwachtingen te zien.

kaart wijzigen: klik op de groene knoppen met een zwart kruis om in te zoomen, op de groene knop met een streepje om uit te zoomen of op de groene pijlen voor aangrenzende kaarten.


METAR-TAF: